sensor_id;sensor_type;location;lat;lon;timestamp;pressure;altitude;pressure_sealevel;temperature;humidity
60019;BME280;45870;42.528;26.740;2022-07-23T00:00:20;99752.28;;;23.91;40.85
60019;BME280;45870;42.528;26.740;2022-07-23T00:02:46;99752.28;;;23.91;40.91
60019;BME280;45870;42.528;26.740;2022-07-23T00:05:12;99668.75;;;23.25;41.16
60019;BME280;45870;42.528;26.740;2022-07-23T00:07:38;99755.34;;;23.80;40.91
60019;BME280;45870;42.528;26.740;2022-07-23T00:10:05;99755.13;;;23.68;41.41
60019;BME280;45870;42.528;26.740;2022-07-23T00:12:31;99748.13;;;23.54;41.59
60019;BME280;45870;42.528;26.740;2022-07-23T00:14:57;99760.16;;;23.66;41.63
60019;BME280;45870;42.528;26.740;2022-07-23T00:17:22;99755.41;;;23.58;41.52
60019;BME280;45870;42.528;26.740;2022-07-23T00:19:48;99741.97;;;22.73;43.39
60019;BME280;45870;42.528;26.740;2022-07-23T00:22:14;99758.47;;;22.95;43.46
60019;BME280;45870;42.528;26.740;2022-07-23T00:24:39;99749.09;;;23.58;41.97
60019;BME280;45870;42.528;26.740;2022-07-23T00:27:05;99728.09;;;23.39;41.70
60019;BME280;45870;42.528;26.740;2022-07-23T00:29:31;99748.28;;;22.60;43.38
60019;BME280;45870;42.528;26.740;2022-07-23T00:31:57;99746.91;;;23.15;42.87
60019;BME280;45870;42.528;26.740;2022-07-23T00:34:22;99741.50;;;22.21;45.07
60019;BME280;45870;42.528;26.740;2022-07-23T00:36:48;99748.88;;;23.15;42.87
60019;BME280;45870;42.528;26.740;2022-07-23T00:39:14;99748.47;;;22.05;45.94
60019;BME280;45870;42.528;26.740;2022-07-23T00:41:39;99746.34;;;22.74;44.23
60019;BME280;45870;42.528;26.740;2022-07-23T00:44:20;99752.41;;;22.49;45.04
60019;BME280;45870;42.528;26.740;2022-07-23T00:46:51;99746.97;;;23.46;42.64
60019;BME280;45870;42.528;26.740;2022-07-23T00:49:18;99745.63;;;23.13;43.17
60019;BME280;45870;42.528;26.740;2022-07-23T00:51:44;99748.38;;;23.44;42.80
60019;BME280;45870;42.528;26.740;2022-07-23T00:54:10;99742.50;;;23.36;42.67
60019;BME280;45870;42.528;26.740;2022-07-23T00:56:36;99745.53;;;23.26;42.92
60019;BME280;45870;42.528;26.740;2022-07-23T00:59:02;99747.84;;;22.08;46.00
60019;BME280;45870;42.528;26.740;2022-07-23T01:01:28;99751.44;;;22.45;45.38
60019;BME280;45870;42.528;26.740;2022-07-23T01:03:54;99743.50;;;22.87;44.36
60019;BME280;45870;42.528;26.740;2022-07-23T01:06:20;99742.03;;;23.12;43.44
60019;BME280;45870;42.528;26.740;2022-07-23T01:08:45;99652.28;;;22.50;42.91
60019;BME280;45870;42.528;26.740;2022-07-23T01:11:11;99731.28;;;22.94;43.48
60019;BME280;45870;42.528;26.740;2022-07-23T01:13:42;99736.00;;;22.57;44.41
60019;BME280;45870;42.528;26.740;2022-07-23T01:16:09;99648.66;;;22.18;44.31
60019;BME280;45870;42.528;26.740;2022-07-23T01:18:34;99735.41;;;22.82;43.93
60019;BME280;45870;42.528;26.740;2022-07-23T01:21:00;99737.16;;;22.78;43.98
60019;BME280;45870;42.528;26.740;2022-07-23T01:23:29;99737.63;;;22.80;43.87
60019;BME280;45870;42.528;26.740;2022-07-23T01:25:55;99744.53;;;22.69;44.19
60019;BME280;45870;42.528;26.740;2022-07-23T01:28:21;99741.66;;;22.74;43.40
60019;BME280;45870;42.528;26.740;2022-07-23T01:30:48;99745.63;;;22.90;43.05
60019;BME280;45870;42.528;26.740;2022-07-23T01:33:14;99750.09;;;22.78;43.52
60019;BME280;45870;42.528;26.740;2022-07-23T01:35:40;99742.50;;;22.61;43.70
60019;BME280;45870;42.528;26.740;2022-07-23T01:38:07;99746.06;;;22.84;43.00
60019;BME280;45870;42.528;26.740;2022-07-23T01:40:32;99660.03;;;22.25;44.15
60019;BME280;45870;42.528;26.740;2022-07-23T01:42:58;99739.47;;;22.49;44.65
60019;BME280;45870;42.528;26.740;2022-07-23T01:45:24;99750.00;;;22.47;44.75
60019;BME280;45870;42.528;26.740;2022-07-23T01:47:49;99684.69;;;21.67;45.57
60019;BME280;45870;42.528;26.740;2022-07-23T01:50:15;99750.81;;;22.48;44.53
60019;BME280;45870;42.528;26.740;2022-07-23T01:52:41;99742.38;;;21.67;46.61
60019;BME280;45870;42.528;26.740;2022-07-23T01:55:07;99743.38;;;22.12;45.17
60019;BME280;45870;42.528;26.740;2022-07-23T01:57:33;99746.47;;;22.33;44.45
60019;BME280;45870;42.528;26.740;2022-07-23T01:59:59;99682.59;;;22.00;44.18
60019;BME280;45870;42.528;26.740;2022-07-23T02:02:24;99740.09;;;22.46;43.82
60019;BME280;45870;42.528;26.740;2022-07-23T02:04:50;99741.66;;;22.38;44.11
60019;BME280;45870;42.528;26.740;2022-07-23T02:07:16;99743.09;;;22.36;44.18
60019;BME280;45870;42.528;26.740;2022-07-23T02:09:42;99675.47;;;21.85;44.44
60019;BME280;45870;42.528;26.740;2022-07-23T02:12:08;99737.94;;;22.21;44.46
60019;BME280;45870;42.528;26.740;2022-07-23T02:14:34;99745.56;;;22.24;44.54
60019;BME280;45870;42.528;26.740;2022-07-23T02:16:59;99676.72;;;21.79;44.55
60019;BME280;45870;42.528;26.740;2022-07-23T02:19:25;99741.59;;;22.30;44.63
60019;BME280;45870;42.528;26.740;2022-07-23T02:21:51;99743.78;;;22.41;44.30
60019;BME280;45870;42.528;26.740;2022-07-23T02:24:17;99743.47;;;22.43;44.22
60019;BME280;45870;42.528;26.740;2022-07-23T02:26:42;99741.94;;;22.51;44.01
60019;BME280;45870;42.528;26.740;2022-07-23T02:29:08;99743.13;;;22.58;43.80
60019;BME280;45870;42.528;26.740;2022-07-23T02:31:34;99745.16;;;22.53;43.76
60019;BME280;45870;42.528;26.740;2022-07-23T02:34:00;99751.63;;;22.12;44.61
60019;BME280;45870;42.528;26.740;2022-07-23T02:36:27;99742.84;;;22.10;44.98
60019;BME280;45870;42.528;26.740;2022-07-23T02:38:53;99739.28;;;22.10;44.89
60019;BME280;45870;42.528;26.740;2022-07-23T02:41:19;99743.59;;;22.38;44.49
60019;BME280;45870;42.528;26.740;2022-07-23T02:43:45;99741.53;;;22.08;44.98
60019;BME280;45870;42.528;26.740;2022-07-23T02:46:10;99736.13;;;22.03;45.15
60019;BME280;45870;42.528;26.740;2022-07-23T02:48:36;99747.38;;;22.28;44.72
60019;BME280;45870;42.528;26.740;2022-07-23T02:51:02;99742.75;;;22.15;45.33
60019;BME280;45870;42.528;26.740;2022-07-23T02:53:27;99746.63;;;22.01;45.59
60019;BME280;45870;42.528;26.740;2022-07-23T02:55:53;99743.50;;;21.94;46.08
60019;BME280;45870;42.528;26.740;2022-07-23T02:58:19;99744.09;;;21.77;46.45
60019;BME280;45870;42.528;26.740;2022-07-23T03:00:44;99738.81;;;21.94;45.87
60019;BME280;45870;42.528;26.740;2022-07-23T03:03:10;99737.69;;;22.45;45.07
60019;BME280;45870;42.528;26.740;2022-07-23T03:05:37;99746.84;;;22.76;44.43
60019;BME280;45870;42.528;26.740;2022-07-23T03:08:03;99741.28;;;22.89;44.13
60019;BME280;45870;42.528;26.740;2022-07-23T03:10:28;99743.19;;;23.11;43.50
60019;BME280;45870;42.528;26.740;2022-07-23T03:12:54;99747.34;;;23.31;43.33
60019;BME280;45870;42.528;26.740;2022-07-23T03:15:20;99752.84;;;23.62;42.60
60019;BME280;45870;42.528;26.740;2022-07-23T03:17:46;99752.38;;;24.25;41.71
60019;BME280;45870;42.528;26.740;2022-07-23T03:20:12;99720.56;;;24.70;40.08
60019;BME280;45870;42.528;26.740;2022-07-23T03:22:38;99744.44;;;25.56;38.63
60019;BME280;45870;42.528;26.740;2022-07-23T03:25:04;99700.22;;;25.85;38.02
60019;BME280;45870;42.528;26.740;2022-07-23T03:27:30;99749.66;;;25.57;38.12
60019;BME280;45870;42.528;26.740;2022-07-23T03:29:58;99742.44;;;25.94;37.58
60019;BME280;45870;42.528;26.740;2022-07-23T03:32:24;99747.91;;;26.73;36.16
60019;BME280;45870;42.528;26.740;2022-07-23T03:34:51;99737.66;;;27.88;34.15
60019;BME280;45870;42.528;26.740;2022-07-23T03:37:18;99760.56;;;28.73;33.37
60019;BME280;45870;42.528;26.740;2022-07-23T03:39:45;99756.06;;;29.40;31.87
60019;BME280;45870;42.528;26.740;2022-07-23T03:42:10;99758.31;;;29.66;31.51
60019;BME280;45870;42.528;26.740;2022-07-23T03:44:37;99733.97;;;30.64;30.34
60019;BME280;45870;42.528;26.740;2022-07-23T03:47:04;99758.84;;;31.56;28.55
60019;BME280;45870;42.528;26.740;2022-07-23T03:49:31;99754.88;;;31.80;27.53
60019;BME280;45870;42.528;26.740;2022-07-23T03:51:57;99762.22;;;32.71;26.57
60019;BME280;45870;42.528;26.740;2022-07-23T03:54:23;99759.56;;;33.14;26.32
60019;BME280;45870;42.528;26.740;2022-07-23T03:56:49;99769.56;;;33.56;25.59
60019;BME280;45870;42.528;26.740;2022-07-23T03:59:14;99741.66;;;34.14;24.97
60019;BME280;45870;42.528;26.740;2022-07-23T04:01:40;99758.41;;;34.07;25.51
60019;BME280;45870;42.528;26.740;2022-07-23T04:04:06;99764.25;;;35.32;23.83
60019;BME280;45870;42.528;26.740;2022-07-23T04:06:34;99769.50;;;35.76;22.68
60019;BME280;45870;42.528;26.740;2022-07-23T04:09:00;99765.84;;;36.32;22.28
60019;BME280;45870;42.528;26.740;2022-07-23T04:11:26;99737.75;;;36.22;22.44
60019;BME280;45870;42.528;26.740;2022-07-23T04:13:52;99772.72;;;35.82;22.46
60019;BME280;45870;42.528;26.740;2022-07-23T04:16:19;99776.66;;;36.62;21.11
60019;BME280;45870;42.528;26.740;2022-07-23T04:18:45;99745.38;;;36.28;20.97
60019;BME280;45870;42.528;26.740;2022-07-23T04:21:12;99777.06;;;35.33;22.47
60019;BME280;45870;42.528;26.740;2022-07-23T04:23:38;99782.69;;;35.40;23.16
60019;BME280;45870;42.528;26.740;2022-07-23T04:26:04;99790.72;;;34.52;24.73
60019;BME280;45870;42.528;26.740;2022-07-23T04:28:30;99789.59;;;35.92;22.26
60019;BME280;45870;42.528;26.740;2022-07-23T04:30:57;99779.47;;;35.24;23.64
60019;BME280;45870;42.528;26.740;2022-07-23T04:33:23;99300.19;;;28.70;26.75
60019;BME280;45870;42.528;26.740;2022-07-23T04:35:49;99781.69;;;32.37;27.02
60019;BME280;45870;42.528;26.740;2022-07-23T04:38:14;99786.00;;;29.31;31.35
60019;BME280;45870;42.528;26.740;2022-07-23T04:40:44;99787.06;;;31.09;28.87
60019;BME280;45870;42.528;26.740;2022-07-23T04:43:12;99777.66;;;30.79;29.00
60019;BME280;45870;42.528;26.740;2022-07-23T04:45:38;99785.50;;;29.88;29.69
60019;BME280;45870;42.528;26.740;2022-07-23T04:48:05;99793.72;;;29.10;31.21
60019;BME280;45870;42.528;26.740;2022-07-23T04:50:31;99782.19;;;32.43;26.93
60019;BME280;45870;42.528;26.740;2022-07-23T04:52:57;99784.22;;;30.01;29.53
60019;BME280;45870;42.528;26.740;2022-07-23T04:55:22;99784.56;;;28.42;32.47
60019;BME280;45870;42.528;26.740;2022-07-23T04:57:48;99792.66;;;29.14;31.62
60019;BME280;45870;42.528;26.740;2022-07-23T05:00:17;99653.47;;;28.08;31.80
60019;BME280;45870;42.528;26.740;2022-07-23T05:02:43;99779.72;;;30.82;29.24
60019;BME280;45870;42.528;26.740;2022-07-23T05:05:09;99783.75;;;33.00;26.01
60019;BME280;45870;42.528;26.740;2022-07-23T05:07:35;99777.09;;;33.92;24.63
60019;BME280;45870;42.528;26.740;2022-07-23T05:10:00;99780.00;;;34.06;24.90
60019;BME280;45870;42.528;26.740;2022-07-23T05:12:26;99778.75;;;35.80;22.47
60019;BME280;45870;42.528;26.740;2022-07-23T05:14:52;99785.69;;;33.29;25.88
60019;BME280;45870;42.528;26.740;2022-07-23T05:17:18;99785.56;;;35.93;22.56
60019;BME280;45870;42.528;26.740;2022-07-23T05:19:44;99782.63;;;36.68;21.33
60019;BME280;45870;42.528;26.740;2022-07-23T05:22:09;99789.97;;;36.26;22.61
60019;BME280;45870;42.528;26.740;2022-07-23T05:24:35;99780.34;;;35.92;22.04
60019;BME280;45870;42.528;26.740;2022-07-23T05:27:01;99788.31;;;36.39;21.03
60019;BME280;45870;42.528;26.740;2022-07-23T05:29:26;99783.72;;;34.86;23.50
60019;BME280;45870;42.528;26.740;2022-07-23T05:31:52;99793.81;;;36.85;20.69
60019;BME280;45870;42.528;26.740;2022-07-23T05:34:18;99788.16;;;34.22;23.96
60019;BME280;45870;42.528;26.740;2022-07-23T05:36:43;99783.00;;;34.31;23.97
60019;BME280;45870;42.528;26.740;2022-07-23T05:39:09;99787.25;;;34.66;22.55
60019;BME280;45870;42.528;26.740;2022-07-23T05:41:35;99789.00;;;32.45;25.89
60019;BME280;45870;42.528;26.740;2022-07-23T05:44:01;99791.00;;;31.69;27.44
60019;BME280;45870;42.528;26.740;2022-07-23T05:46:26;99774.50;;;31.61;27.50
60019;BME280;45870;42.528;26.740;2022-07-23T05:48:52;99786.25;;;31.96;27.71
60019;BME280;45870;42.528;26.740;2022-07-23T05:51:21;99786.81;;;34.64;23.45
60019;BME280;45870;42.528;26.740;2022-07-23T05:53:48;99791.53;;;35.42;22.17
60019;BME280;45870;42.528;26.740;2022-07-23T05:56:14;99793.25;;;37.26;20.06
60019;BME280;45870;42.528;26.740;2022-07-23T05:58:40;99791.16;;;36.32;21.85
60019;BME280;45870;42.528;26.740;2022-07-23T06:01:06;99790.88;;;37.17;20.63
60019;BME280;45870;42.528;26.740;2022-07-23T06:03:32;99795.38;;;34.23;23.78
60019;BME280;45870;42.528;26.740;2022-07-23T06:05:58;99762.22;;;35.29;22.82
60019;BME280;45870;42.528;26.740;2022-07-23T06:08:24;99791.56;;;36.31;21.18
60019;BME280;45870;42.528;26.740;2022-07-23T06:10:49;99797.59;;;35.66;22.05
60019;BME280;45870;42.528;26.740;2022-07-23T06:13:18;99795.16;;;37.43;20.56
60019;BME280;45870;42.528;26.740;2022-07-23T06:15:44;99792.22;;;38.53;19.53
60019;BME280;45870;42.528;26.740;2022-07-23T06:18:09;99788.75;;;37.39;20.43
60019;BME280;45870;42.528;26.740;2022-07-23T06:20:36;99787.94;;;38.75;18.46
60019;BME280;45870;42.528;26.740;2022-07-23T06:23:01;99783.38;;;37.59;19.87
60019;BME280;45870;42.528;26.740;2022-07-23T06:25:27;99776.28;;;36.32;20.74
60019;BME280;45870;42.528;26.740;2022-07-23T06:27:54;99784.28;;;35.31;22.50
60019;BME280;45870;42.528;26.740;2022-07-23T06:30:20;99779.34;;;34.96;21.34
60019;BME280;45870;42.528;26.740;2022-07-23T06:32:47;99753.06;;;35.92;20.96
60019;BME280;45870;42.528;26.740;2022-07-23T06:35:13;99785.81;;;38.08;20.21
60019;BME280;45870;42.528;26.740;2022-07-23T06:37:38;99775.63;;;37.15;20.61
60019;BME280;45870;42.528;26.740;2022-07-23T06:40:04;99773.56;;;40.04;17.66
60019;BME280;45870;42.528;26.740;2022-07-23T06:42:30;99767.47;;;35.55;21.47
60019;BME280;45870;42.528;26.740;2022-07-23T06:44:56;99767.25;;;34.81;22.36
60019;BME280;45870;42.528;26.740;2022-07-23T06:47:22;99769.41;;;36.54;20.84
60019;BME280;45870;42.528;26.740;2022-07-23T06:49:48;99768.28;;;38.31;19.33
60019;BME280;45870;42.528;26.740;2022-07-23T06:52:14;99767.69;;;36.85;19.95
60019;BME280;45870;42.528;26.740;2022-07-23T06:54:40;99775.47;;;37.91;19.34
60019;BME280;45870;42.528;26.740;2022-07-23T06:57:06;99767.84;;;35.54;22.51
60019;BME280;45870;42.528;26.740;2022-07-23T06:59:32;99777.69;;;36.96;21.30
60019;BME280;45870;42.528;26.740;2022-07-23T07:02:01;99776.72;;;36.27;21.42
60019;BME280;45870;42.528;26.740;2022-07-23T07:04:27;99766.91;;;34.93;23.74
60019;BME280;45870;42.528;26.740;2022-07-23T07:06:54;99769.44;;;35.37;23.78
60019;BME280;45870;42.528;26.740;2022-07-23T07:09:20;99775.50;;;37.87;20.31
60019;BME280;45870;42.528;26.740;2022-07-23T07:11:45;99768.94;;;38.79;19.09
60019;BME280;45870;42.528;26.740;2022-07-23T07:14:11;99776.03;;;40.25;17.62
60019;BME280;45870;42.528;26.740;2022-07-23T07:16:37;99703.19;;;38.52;18.61
60019;BME280;45870;42.528;26.740;2022-07-23T07:19:02;99778.66;;;38.00;19.80
60019;BME280;45870;42.528;26.740;2022-07-23T07:21:28;99785.97;;;40.56;17.38
60019;BME280;45870;42.528;26.740;2022-07-23T07:23:54;99774.78;;;40.03;18.56
60019;BME280;45870;42.528;26.740;2022-07-23T07:26:20;99770.09;;;39.69;19.21
60019;BME280;45870;42.528;26.740;2022-07-23T07:28:45;99770.75;;;40.47;17.88
60019;BME280;45870;42.528;26.740;2022-07-23T07:31:11;99764.59;;;40.52;17.16
60019;BME280;45870;42.528;26.740;2022-07-23T07:33:37;99765.34;;;40.75;17.53
60019;BME280;45870;42.528;26.740;2022-07-23T07:36:04;99770.22;;;40.09;17.96
60019;BME280;45870;42.528;26.740;2022-07-23T07:38:30;99760.88;;;39.12;19.09
60019;BME280;45870;42.528;26.740;2022-07-23T07:40:55;99755.88;;;38.92;18.61
60019;BME280;45870;42.528;26.740;2022-07-23T07:43:21;99765.38;;;40.52;17.66
60019;BME280;45870;42.528;26.740;2022-07-23T07:45:47;99766.63;;;41.78;16.96
60019;BME280;45870;42.528;26.740;2022-07-23T07:48:13;99758.66;;;37.29;20.69
60019;BME280;45870;42.528;26.740;2022-07-23T07:50:39;99762.34;;;37.15;20.87
60019;BME280;45870;42.528;26.740;2022-07-23T07:53:04;99749.00;;;38.26;20.24
60019;BME280;45870;42.528;26.740;2022-07-23T07:55:30;99753.69;;;38.39;18.60
60019;BME280;45870;42.528;26.740;2022-07-23T07:57:56;99747.31;;;37.39;19.66
60019;BME280;45870;42.528;26.740;2022-07-23T08:00:23;99750.44;;;38.75;19.05
60019;BME280;45870;42.528;26.740;2022-07-23T08:02:51;99755.75;;;41.25;15.64
60019;BME280;45870;42.528;26.740;2022-07-23T08:05:24;99752.28;;;40.62;17.02
60019;BME280;45870;42.528;26.740;2022-07-23T08:07:50;99752.91;;;37.98;18.34
60019;BME280;45870;42.528;26.740;2022-07-23T08:10:17;99748.50;;;39.02;16.98
60019;BME280;45870;42.528;26.740;2022-07-23T08:15:11;99753.47;;;43.79;13.77
60019;BME280;45870;42.528;26.740;2022-07-23T08:17:38;99746.94;;;40.44;16.62
60019;BME280;45870;42.528;26.740;2022-07-23T08:20:05;99754.66;;;41.71;15.67
60019;BME280;45870;42.528;26.740;2022-07-23T08:22:58;99746.69;;;41.98;15.38
60019;BME280;45870;42.528;26.740;2022-07-23T08:25:31;99687.91;;;42.15;15.09
60019;BME280;45870;42.528;26.740;2022-07-23T08:28:00;99707.28;;;41.71;15.67
60019;BME280;45870;42.528;26.740;2022-07-23T08:30:27;99647.31;;;43.48;13.81
60019;BME280;45870;42.528;26.740;2022-07-23T08:35:35;99737.56;;;44.16;14.98
60019;BME280;45870;42.528;26.740;2022-07-23T08:38:03;99740.84;;;43.67;13.45
60019;BME280;45870;42.528;26.740;2022-07-23T08:40:34;99737.50;;;42.93;15.61
60019;BME280;45870;42.528;26.740;2022-07-23T08:43:05;99743.16;;;39.38;16.77
60019;BME280;45870;42.528;26.740;2022-07-23T08:45:36;99717.06;;;40.82;15.96
60019;BME280;45870;42.528;26.740;2022-07-23T08:48:02;99748.00;;;42.10;14.23
60019;BME280;45870;42.528;26.740;2022-07-23T08:50:28;99737.47;;;43.47;13.66
60019;BME280;45870;42.528;26.740;2022-07-23T08:52:54;99727.19;;;42.00;14.61
60019;BME280;45870;42.528;26.740;2022-07-23T08:55:23;99736.53;;;43.00;13.81
60019;BME280;45870;42.528;26.740;2022-07-23T08:57:52;99742.69;;;43.11;13.15
60019;BME280;45870;42.528;26.740;2022-07-23T09:00:21;99738.81;;;44.15;13.29
60019;BME280;45870;42.528;26.740;2022-07-23T09:02:48;99737.56;;;44.16;12.79
60019;BME280;45870;42.528;26.740;2022-07-23T09:05:15;99734.63;;;43.47;12.96
60019;BME280;45870;42.528;26.740;2022-07-23T09:08:09;99738.41;;;42.20;13.95
60019;BME280;45870;42.528;26.740;2022-07-23T09:13:35;99731.13;;;44.37;11.70
60019;BME280;45870;42.528;26.740;2022-07-23T09:16:19;99740.66;;;45.48;12.83
60019;BME280;45870;42.528;26.740;2022-07-23T09:18:52;99732.13;;;45.17;10.90
60019;BME280;45870;42.528;26.740;2022-07-23T09:21:22;99729.41;;;44.40;11.61
60019;BME280;45870;42.528;26.740;2022-07-23T09:26:33;99724.78;;;46.14;9.56
60019;BME280;45870;42.528;26.740;2022-07-23T09:29:04;99717.63;;;39.91;14.88
60019;BME280;45870;42.528;26.740;2022-07-23T09:34:23;99714.44;;;45.90;10.86
60019;BME280;45870;42.528;26.740;2022-07-23T09:36:53;99704.69;;;43.81;11.87
60019;BME280;45870;42.528;26.740;2022-07-23T09:39:32;99704.75;;;44.89;10.45
60019;BME280;45870;42.528;26.740;2022-07-23T09:42:18;99707.34;;;45.36;10.85
60019;BME280;45870;42.528;26.740;2022-07-23T09:44:52;99703.50;;;46.43;9.59
60019;BME280;45870;42.528;26.740;2022-07-23T09:47:21;99696.06;;;47.71;10.43
60019;BME280;45870;42.528;26.740;2022-07-23T09:50:09;99700.94;;;48.18;8.84
60019;BME280;45870;42.528;26.740;2022-07-23T09:52:48;99692.59;;;47.43;9.22
60019;BME280;45870;42.528;26.740;2022-07-23T09:55:17;99689.78;;;43.76;11.99
60019;BME280;45870;42.528;26.740;2022-07-23T09:57:45;99683.38;;;44.94;10.46
60019;BME280;45870;42.528;26.740;2022-07-23T10:00:12;99679.44;;;43.70;11.60
60019;BME280;45870;42.528;26.740;2022-07-23T10:02:40;99683.28;;;44.10;11.59
60019;BME280;45870;42.528;26.740;2022-07-23T10:05:07;99569.88;;;45.68;10.57
60019;BME280;45870;42.528;26.740;2022-07-23T10:07:37;99678.47;;;46.38;9.88
60019;BME280;45870;42.528;26.740;2022-07-23T10:10:05;99681.91;;;45.69;10.36
60019;BME280;45870;42.528;26.740;2022-07-23T10:12:32;99673.03;;;43.32;11.95
60019;BME280;45870;42.528;26.740;2022-07-23T10:15:29;99673.59;;;46.20;9.72
60019;BME280;45870;42.528;26.740;2022-07-23T10:17:59;99671.72;;;44.48;11.61
60019;BME280;45870;42.528;26.740;2022-07-23T10:20:25;99671.34;;;42.55;13.50
60019;BME280;45870;42.528;26.740;2022-07-23T10:23:09;99660.03;;;43.56;12.21
60019;BME280;45870;42.528;26.740;2022-07-23T10:28:42;99659.56;;;45.58;10.89
60019;BME280;45870;42.528;26.740;2022-07-23T10:36:49;99652.13;;;44.50;10.29
60019;BME280;45870;42.528;26.740;2022-07-23T10:39:33;99646.31;;;43.42;11.84
60019;BME280;45870;42.528;26.740;2022-07-23T10:42:13;99646.53;;;42.71;11.86
60019;BME280;45870;42.528;26.740;2022-07-23T10:44:42;99644.06;;;43.71;12.98
60019;BME280;45870;42.528;26.740;2022-07-23T10:47:10;99638.72;;;43.13;11.53
60019;BME280;45870;42.528;26.740;2022-07-23T10:49:39;99582.81;;;43.57;11.85
60019;BME280;45870;42.528;26.740;2022-07-23T10:54:41;99630.56;;;42.36;13.61
60019;BME280;45870;42.528;26.740;2022-07-23T10:57:09;99624.53;;;43.01;12.65
60019;BME280;45870;42.528;26.740;2022-07-23T11:02:38;99611.78;;;43.65;11.82
60019;BME280;45870;42.528;26.740;2022-07-23T11:05:06;99609.00;;;42.51;13.22
60019;BME280;45870;42.528;26.740;2022-07-23T11:07:33;99603.56;;;43.67;12.03
60019;BME280;45870;42.528;26.740;2022-07-23T11:09:59;99602.47;;;44.82;10.86
60019;BME280;45870;42.528;26.740;2022-07-23T11:17:30;99495.31;;;41.05;12.97
60019;BME280;45870;42.528;26.740;2022-07-23T11:22:39;99589.78;;;40.95;13.39
60019;BME280;45870;42.528;26.740;2022-07-23T11:25:06;99589.28;;;41.16;13.58
60019;BME280;45870;42.528;26.740;2022-07-23T11:30:06;99581.09;;;42.50;13.06
60019;BME280;45870;42.528;26.740;2022-07-23T11:32:35;99583.97;;;41.34;14.08
60019;BME280;45870;42.528;26.740;2022-07-23T11:35:22;99572.50;;;41.54;13.39
60019;BME280;45870;42.528;26.740;2022-07-23T11:37:49;99572.56;;;41.96;13.75
60019;BME280;45870;42.528;26.740;2022-07-23T11:40:20;99569.06;;;43.77;12.94
60019;BME280;45870;42.528;26.740;2022-07-23T11:42:55;99570.44;;;44.07;12.32
60019;BME280;45870;42.528;26.740;2022-07-23T11:45:22;99568.97;;;42.87;13.01
60019;BME280;45870;42.528;26.740;2022-07-23T11:47:47;99547.97;;;42.05;13.45
60019;BME280;45870;42.528;26.740;2022-07-23T11:50:14;99578.31;;;41.79;13.33
60019;BME280;45870;42.528;26.740;2022-07-23T11:52:39;99569.94;;;41.89;13.20
60019;BME280;45870;42.528;26.740;2022-07-23T11:55:08;99573.63;;;41.73;13.03
60019;BME280;45870;42.528;26.740;2022-07-23T11:57:38;99576.63;;;40.88;13.75
60019;BME280;45870;42.528;26.740;2022-07-23T12:00:10;99559.50;;;38.95;16.22
60019;BME280;45870;42.528;26.740;2022-07-23T12:02:41;99566.16;;;40.69;15.56
60019;BME280;45870;42.528;26.740;2022-07-23T12:05:11;99567.00;;;41.02;13.69
60019;BME280;45870;42.528;26.740;2022-07-23T12:07:39;99559.72;;;40.85;14.72
60019;BME280;45870;42.528;26.740;2022-07-23T12:10:13;99547.75;;;41.26;13.60
60019;BME280;45870;42.528;26.740;2022-07-23T12:12:43;99545.00;;;41.83;13.25
60019;BME280;45870;42.528;26.740;2022-07-23T12:15:12;99550.97;;;42.14;13.07
60019;BME280;45870;42.528;26.740;2022-07-23T12:17:41;99549.44;;;41.68;13.17
60019;BME280;45870;42.528;26.740;2022-07-23T12:20:10;99550.44;;;42.32;12.66
60019;BME280;45870;42.528;26.740;2022-07-23T12:22:40;99546.38;;;43.43;12.74
60019;BME280;45870;42.528;26.740;2022-07-23T12:25:18;99548.03;;;44.40;10.89
60019;BME280;45870;42.528;26.740;2022-07-23T12:27:46;99547.03;;;41.83;13.40
60019;BME280;45870;42.528;26.740;2022-07-23T12:30:27;99525.47;;;43.03;12.07
60019;BME280;45870;42.528;26.740;2022-07-23T12:32:55;99534.38;;;43.26;12.70
60019;BME280;45870;42.528;26.740;2022-07-23T12:35:24;99534.66;;;42.31;13.72
60019;BME280;45870;42.528;26.740;2022-07-23T12:38:00;99527.63;;;41.36;13.81
60019;BME280;45870;42.528;26.740;2022-07-23T12:45:27;99521.09;;;41.40;14.07
60019;BME280;45870;42.528;26.740;2022-07-23T12:48:02;99525.78;;;41.46;14.21
60019;BME280;45870;42.528;26.740;2022-07-23T12:50:36;99523.50;;;42.11;13.61
60019;BME280;45870;42.528;26.740;2022-07-23T12:53:15;99513.25;;;41.15;14.36
60019;BME280;45870;42.528;26.740;2022-07-23T12:55:42;99485.34;;;41.29;13.68
60019;BME280;45870;42.528;26.740;2022-07-23T12:58:09;99522.28;;;42.75;13.43
60019;BME280;45870;42.528;26.740;2022-07-23T13:03:33;99527.63;;;43.33;13.01
60019;BME280;45870;42.528;26.740;2022-07-23T13:05:59;99518.66;;;43.35;12.06
60019;BME280;45870;42.528;26.740;2022-07-23T13:08:28;99522.84;;;44.60;11.30
60019;BME280;45870;42.528;26.740;2022-07-23T13:10:54;99520.69;;;43.68;12.36
60019;BME280;45870;42.528;26.740;2022-07-23T13:13:23;99484.91;;;44.02;11.33
60019;BME280;45870;42.528;26.740;2022-07-23T13:15:50;99519.31;;;43.39;11.74
60019;BME280;45870;42.528;26.740;2022-07-23T13:18:17;99524.13;;;45.63;10.28
60019;BME280;45870;42.528;26.740;2022-07-23T13:20:45;99528.13;;;43.53;12.68
60019;BME280;45870;42.528;26.740;2022-07-23T13:23:11;99517.91;;;43.56;12.08
60019;BME280;45870;42.528;26.740;2022-07-23T13:25:37;99512.34;;;43.74;12.03
60019;BME280;45870;42.528;26.740;2022-07-23T13:28:03;99517.28;;;42.54;13.10
60019;BME280;45870;42.528;26.740;2022-07-23T13:30:29;99520.84;;;44.17;12.02
60019;BME280;45870;42.528;26.740;2022-07-23T13:32:55;99515.16;;;43.87;12.29
60019;BME280;45870;42.528;26.740;2022-07-23T13:35:21;99513.81;;;44.31;11.29
60019;BME280;45870;42.528;26.740;2022-07-23T13:37:47;99521.50;;;42.24;12.32